createdAt,value
2022-09-10T00:00:07.479Z,87.38
2022-09-10T00:01:07.392Z,87.28
2022-09-10T00:02:07.349Z,87.59
2022-09-10T00:03:07.324Z,87.48
2022-09-10T00:04:07.410Z,87.08
2022-09-10T00:05:07.306Z,87.28
2022-09-10T00:06:07.328Z,87.08
2022-09-10T00:07:07.382Z,87.79
2022-09-10T00:08:07.292Z,86.98
2022-09-10T00:09:07.357Z,86.57
2022-09-10T00:10:07.385Z,86.68
2022-09-10T00:11:07.442Z,86.07
2022-09-10T00:12:07.278Z,86.68
2022-09-10T00:13:07.273Z,86.37
2022-09-10T00:14:07.351Z,86.68
2022-09-10T00:15:07.230Z,86.51
2022-09-10T00:16:07.285Z,86.71
2022-09-10T00:17:07.548Z,86.71
2022-09-10T00:18:07.167Z,87.12
2022-09-10T00:19:07.263Z,87.12
2022-09-10T00:20:07.134Z,87.26
2022-09-10T00:21:07.273Z,87.73
2022-09-10T00:22:07.140Z,87.77
2022-09-10T00:23:07.218Z,87.77
2022-09-10T00:24:07.133Z,87.97
2022-09-10T00:25:08.476Z,87.77
2022-09-10T00:26:08.343Z,87.87
2022-09-10T00:27:07.062Z,88.07
2022-09-10T00:28:07.011Z,88.28
2022-09-10T00:29:07.034Z,88.28
2022-09-10T00:30:07.052Z,88.42
2022-09-10T00:31:07.079Z,88.68
2022-09-10T00:32:07.024Z,88.89
2022-09-10T00:33:07.029Z,88.07
2022-09-10T00:34:07.084Z,88.18
2022-09-10T00:35:06.965Z,87.97
2022-09-10T00:36:07.134Z,87.87
2022-09-10T00:37:07.039Z,87.87
2022-09-10T00:38:07.011Z,87.77
2022-09-10T00:39:07.129Z,87.46
2022-09-10T00:40:06.993Z,87.57
2022-09-10T00:41:07.131Z,87.77
2022-09-10T00:42:06.928Z,87.26
2022-09-10T00:43:06.951Z,87.37
2022-09-10T00:44:07.021Z,87.22
2022-09-10T00:45:06.909Z,86.71
2022-09-10T00:46:07.090Z,86.96
2022-09-10T00:47:06.894Z,86.76
2022-09-10T00:48:06.991Z,87.26
2022-09-10T00:49:06.820Z,87.57
2022-09-10T00:50:06.988Z,87.87
2022-09-10T00:51:06.919Z,87.97
2022-09-10T00:52:06.895Z,88.28
2022-09-10T00:53:06.796Z,88.38
2022-09-10T00:54:06.931Z,88.18
2022-09-10T00:55:06.756Z,88.73
2022-09-10T00:56:06.877Z,88.52
2022-09-10T00:57:07.825Z,88.32
2022-09-10T00:58:06.839Z,88.52
2022-09-10T00:59:06.770Z,88.32
2022-09-10T01:00:06.792Z,88.42
2022-09-10T01:01:06.897Z,88.82
2022-09-10T01:02:06.875Z,88.62
2022-09-10T01:03:06.754Z,88.73
2022-09-10T01:04:06.982Z,88.82
2022-09-10T01:05:06.706Z,88.62
2022-09-10T01:06:06.930Z,88.73
2022-09-10T01:07:06.709Z,88.93
2022-09-10T01:08:06.680Z,88.62
2022-09-10T01:09:06.685Z,88.82
2022-09-10T01:10:06.615Z,88.73
2022-09-10T01:11:06.724Z,89.03
2022-09-10T01:12:06.665Z,89.33
2022-09-10T01:13:06.585Z,89.23
2022-09-10T01:14:06.699Z,89.64
2022-09-10T01:15:06.595Z,88.93
2022-09-10T01:16:06.656Z,88.62
2022-09-10T01:17:06.665Z,89.13
2022-09-10T01:18:06.556Z,89.17
2022-09-10T01:19:06.620Z,88.93
2022-09-10T01:20:06.551Z,89.43
2022-09-10T01:21:06.541Z,89.84
2022-09-10T01:22:06.539Z,89.64
2022-09-10T01:23:06.556Z,89.74
2022-09-10T01:24:06.502Z,90.05
2022-09-10T01:25:06.609Z,89.64
2022-09-10T01:26:06.465Z,89.64
2022-09-10T01:27:06.518Z,89.54
2022-09-10T01:28:06.429Z,89.03
2022-09-10T01:29:06.448Z,89.03
2022-09-10T01:30:06.429Z,89.29
2022-09-10T01:31:06.584Z,89.29
2022-09-10T01:32:06.412Z,89.09
2022-09-10T01:33:06.440Z,88.68
2022-09-10T01:34:06.557Z,88.99
2022-09-10T01:35:06.473Z,89.33
2022-09-10T01:36:06.484Z,89.29
2022-09-10T01:37:06.381Z,89.33
2022-09-10T01:38:06.389Z,88.89
2022-09-10T01:39:06.446Z,88.93
2022-09-10T01:40:06.439Z,89.09
2022-09-10T01:41:06.346Z,89.64
2022-09-10T01:42:06.308Z,89.84
2022-09-10T01:43:06.385Z,89.33
2022-09-10T01:44:06.329Z,90.05
2022-09-10T01:45:06.263Z,89.33
2022-09-10T01:46:06.363Z,89.23
2022-09-10T01:47:06.295Z,89.33
2022-09-10T01:48:06.256Z,89.13
2022-09-10T01:49:06.229Z,89.39
2022-09-10T01:50:06.267Z,89.13
2022-09-10T01:51:06.298Z,88.93
2022-09-10T01:52:06.219Z,88.62
2022-09-10T01:53:06.242Z,88.89
2022-09-10T01:54:06.153Z,89.19
2022-09-10T01:55:06.179Z,89.13
2022-09-10T01:56:06.212Z,89.13
2022-09-10T01:57:06.191Z,89.23
2022-09-10T01:58:06.158Z,89.90
2022-09-10T01:59:06.181Z,89.50
2022-09-10T02:00:06.170Z,89.29
2022-09-10T02:01:06.175Z,89.90
2022-09-10T02:02:06.129Z,88.93
2022-09-10T02:03:06.089Z,88.68
2022-09-10T02:04:06.088Z,88.38
2022-09-10T02:05:06.187Z,88.68
2022-09-10T02:06:06.131Z,88.18
2022-09-10T02:07:06.062Z,88.18
2022-09-10T02:08:06.093Z,88.38
2022-09-10T02:09:06.110Z,88.07
2022-09-10T02:10:06.109Z,87.77
2022-09-10T02:11:06.083Z,87.87
2022-09-10T02:12:05.991Z,87.87
2022-09-10T02:13:06.056Z,88.07
2022-09-10T02:14:06.036Z,88.18
2022-09-10T02:15:06.020Z,88.38
2022-09-10T02:16:06.069Z,88.18
2022-09-10T02:17:05.995Z,87.87
2022-09-10T02:18:05.986Z,88.21
2022-09-10T02:19:05.970Z,88.18
2022-09-10T02:20:06.009Z,88.01
2022-09-10T02:21:05.988Z,88.12
2022-09-10T02:22:05.913Z,88.32
2022-09-10T02:23:05.959Z,88.62
2022-09-10T02:24:05.951Z,88.73
2022-09-10T02:25:05.897Z,88.73
2022-09-10T02:26:05.954Z,89.54
2022-09-10T02:27:05.932Z,89.23
2022-09-10T02:28:05.922Z,89.88
2022-09-10T02:29:05.934Z,89.94
2022-09-10T02:30:05.898Z,90.25
2022-09-10T02:31:05.887Z,89.74
2022-09-10T02:32:05.852Z,89.58
2022-09-10T02:44:53.413Z,90.29
2022-09-10T02:45:53.528Z,90.44
2022-09-10T02:47:01.137Z,90.39
2022-09-10T02:47:53.456Z,90.29
2022-09-10T02:48:53.378Z,90.23
2022-09-10T02:49:53.348Z,90.44
2022-09-10T02:50:53.358Z,90.90
2022-09-10T02:51:53.317Z,90.29
2022-09-10T02:52:53.310Z,90.59
2022-09-10T02:53:53.301Z,90.29
2022-09-10T02:54:53.286Z,90.39
2022-09-10T02:55:53.312Z,90.49
2022-09-10T02:56:53.363Z,90.14
2022-09-10T03:01:17.841Z,89.54
2022-09-10T03:02:17.884Z,89.74
2022-09-10T03:03:17.879Z,89.84
2022-09-10T03:04:17.774Z,89.59
2022-09-10T03:05:17.987Z,89.09
2022-09-10T03:06:17.786Z,88.68
2022-09-10T03:07:17.775Z,88.48
2022-09-10T03:08:17.746Z,88.89
2022-09-10T03:09:17.753Z,89.29
2022-09-10T03:16:39.282Z,87.77
2022-09-10T03:18:40.785Z,87.77
2022-09-10T03:20:23.037Z,88.68
2022-09-10T03:22:48.667Z,88.82
2022-09-10T03:23:44.701Z,88.93
2022-09-10T03:33:44.920Z,89.78
2022-09-10T03:40:42.460Z,90.03
2022-09-10T03:42:07.671Z,90.13
2022-09-10T03:46:24.504Z,90.13
2022-09-10T03:50:16.019Z,90.23
2022-09-10T03:51:32.724Z,90.64
2022-09-10T04:04:29.200Z,90.84
2022-09-10T04:09:52.134Z,90.68
2022-09-10T04:11:33.734Z,90.74
2022-09-10T04:12:27.386Z,90.78
2022-09-10T04:13:25.941Z,90.23
2022-09-10T04:14:04.079Z,90.64
2022-09-10T04:17:56.113Z,90.88
2022-09-10T04:19:03.571Z,91.19
2022-09-10T04:19:55.480Z,91.90
2022-09-10T04:20:56.398Z,90.88
2022-09-10T04:22:56.170Z,91.90
2022-09-10T04:25:06.491Z,91.39
2022-09-10T04:25:47.693Z,91.74
2022-09-10T04:26:59.053Z,91.60
2022-09-10T04:28:06.635Z,91.80
2022-09-10T04:30:39.664Z,91.69
2022-09-10T04:32:59.927Z,91.60
2022-09-10T04:33:13.600Z,91.69
2022-09-10T04:34:47.513Z,91.60
2022-09-10T04:35:23.042Z,91.29
2022-09-10T04:36:28.119Z,91.49
2022-09-10T04:39:27.282Z,92.04
2022-09-10T04:41:22.464Z,92.14
2022-09-10T04:48:27.280Z,90.88
2022-09-10T04:52:09.776Z,91.90
2022-09-10T04:57:13.463Z,91.80
2022-09-10T04:58:52.173Z,91.64
2022-09-10T05:02:14.032Z,91.60
2022-09-10T05:08:45.915Z,91.25
2022-09-10T05:23:29.403Z,91.61
2022-09-10T05:27:27.647Z,91.41
2022-09-10T05:29:10.934Z,91.51
2022-09-10T05:29:43.975Z,92.02
2022-09-10T05:30:34.670Z,91.61
2022-09-10T05:31:27.588Z,91.82
2022-09-10T05:32:41.172Z,91.41
2022-09-10T05:33:32.038Z,91.30
2022-09-10T05:34:36.094Z,91.82
2022-09-10T05:38:03.686Z,90.66
2022-09-10T05:38:10.755Z,89.94
2022-09-10T05:39:18.410Z,90.05
2022-09-10T05:41:02.421Z,90.14
2022-09-10T05:41:41.448Z,90.35
2022-09-10T05:42:27.956Z,89.84
2022-09-10T05:43:10.176Z,90.45
2022-09-10T05:44:09.021Z,90.66
2022-09-10T05:45:21.600Z,90.96
2022-09-10T05:46:12.827Z,90.66
2022-09-10T05:47:41.591Z,90.25
2022-09-10T05:49:17.651Z,90.05
2022-09-10T05:51:43.385Z,90.66
2022-09-10T05:52:40.035Z,91.16
2022-09-10T05:53:40.074Z,91.06
2022-09-10T05:54:42.093Z,91.47
2022-09-10T05:55:41.845Z,90.66
2022-09-10T05:56:42.359Z,90.55
2022-09-10T05:57:57.044Z,90.66
2022-09-10T05:58:53.521Z,90.81
2022-09-10T05:59:52.267Z,90.71
2022-09-10T06:00:41.567Z,91.12
2022-09-10T06:01:40.894Z,91.22
2022-09-10T06:05:45.764Z,90.41
2022-09-10T06:06:37.609Z,90.20
2022-09-10T06:08:37.201Z,90.92
2022-09-10T06:12:36.950Z,91.63
2022-09-10T06:13:32.240Z,91.42
2022-09-10T06:14:00.416Z,91.22
2022-09-10T06:16:59.659Z,91.42
2022-09-10T06:18:01.379Z,92.13
2022-09-10T06:18:49.370Z,91.73
2022-09-10T06:19:32.414Z,91.52
2022-09-10T06:20:30.713Z,92.03
2022-09-10T06:21:35.847Z,92.13
2022-09-10T06:22:37.812Z,92.03
2022-09-10T06:23:32.043Z,92.03
2022-09-10T06:24:32.628Z,92.64
2022-09-10T06:25:37.061Z,93.05
2022-09-10T06:26:46.829Z,93.70
2022-09-10T06:27:35.115Z,93.55
2022-09-10T06:28:29.997Z,93.76
2022-09-10T06:29:33.629Z,93.76
2022-09-10T06:30:32.050Z,93.65
2022-09-10T06:32:14.202Z,94.06
2022-09-10T06:32:41.674Z,93.96
2022-09-10T06:33:44.541Z,94.06
2022-09-10T06:34:31.302Z,93.86
2022-09-10T06:35:32.874Z,94.37
2022-09-10T06:36:34.445Z,93.90
2022-09-10T06:37:32.065Z,94.37
2022-09-10T06:38:46.801Z,94.51
2022-09-10T06:39:58.511Z,94.37
2022-09-10T06:41:03.285Z,94.26
2022-09-10T06:41:40.839Z,94.57
2022-09-10T06:43:23.619Z,94.26
2022-09-10T06:44:34.594Z,94.71
2022-09-10T06:44:40.816Z,94.82
2022-09-10T06:46:40.808Z,94.92
2022-09-10T06:47:39.433Z,94.98
2022-09-10T06:49:24.185Z,94.51
2022-09-10T06:50:10.130Z,95.12
2022-09-10T06:50:39.309Z,94.57
2022-09-10T06:51:39.402Z,94.41
2022-09-10T06:52:45.160Z,94.92
2022-09-10T06:53:44.740Z,94.82
2022-09-10T06:54:40.464Z,94.92
2022-09-10T06:55:56.983Z,95.22
2022-09-10T06:58:01.126Z,95.22
2022-09-10T06:58:08.145Z,95.53
2022-09-10T06:59:08.338Z,95.38
2022-09-10T07:00:08.575Z,94.67
2022-09-10T07:01:23.126Z,94.77
2022-09-10T07:02:12.088Z,94.98
2022-09-10T07:03:46.283Z,94.87
2022-09-10T07:04:54.583Z,94.57
2022-09-10T07:06:40.971Z,94.32
2022-09-10T07:07:40.817Z,94.26
2022-09-10T07:08:40.924Z,94.32
2022-09-10T07:09:41.693Z,94.22
2022-09-10T07:10:44.732Z,94.22
2022-09-10T07:11:42.776Z,94.22
2022-09-10T07:12:57.426Z,94.12
2022-09-10T07:13:42.126Z,94.38
2022-09-10T07:14:40.614Z,93.81
2022-09-10T07:15:44.205Z,93.81
2022-09-10T07:16:51.056Z,93.91
2022-09-10T07:17:50.954Z,93.71
2022-09-10T07:18:42.614Z,93.81
2022-09-10T07:19:42.256Z,93.91
2022-09-10T07:20:53.245Z,93.87
2022-09-10T07:21:42.813Z,93.77
2022-09-10T07:22:48.277Z,93.77
2022-09-10T07:23:43.290Z,93.77
2022-09-10T07:24:42.763Z,93.67
2022-09-10T07:25:45.174Z,93.46
2022-09-10T07:26:44.515Z,93.51
2022-09-10T07:27:45.780Z,93.67
2022-09-10T07:29:09.744Z,93.57
2022-09-10T07:29:44.571Z,93.77
2022-09-10T07:30:56.459Z,93.67
2022-09-10T07:32:05.059Z,93.67
2022-09-10T07:32:41.651Z,93.97
2022-09-10T07:33:42.529Z,93.87
2022-09-10T07:34:43.180Z,93.46
2022-09-10T07:35:44.977Z,93.46
2022-09-10T07:36:55.628Z,93.57
2022-09-10T07:38:11.215Z,94.18
2022-09-10T07:39:34.547Z,93.87
2022-09-10T07:39:44.245Z,93.52
2022-09-10T07:40:53.731Z,93.46
2022-09-10T07:41:47.756Z,93.02
2022-09-10T07:42:43.852Z,93.73
2022-09-10T07:43:41.957Z,93.73
2022-09-10T07:44:43.594Z,93.38
2022-09-10T07:45:42.008Z,92.91
2022-09-10T07:46:42.112Z,92.67
2022-09-10T07:48:06.069Z,92.67
2022-09-10T07:48:43.754Z,92.16
2022-09-10T07:49:41.907Z,92.06
2022-09-10T07:50:50.927Z,91.61
2022-09-10T07:52:17.982Z,91.71
2022-09-10T07:53:30.229Z,91.11
2022-09-10T07:53:50.838Z,91.71
2022-09-10T07:54:43.652Z,91.77
2022-09-10T07:55:54.203Z,91.47
2022-09-10T07:56:42.868Z,91.16
2022-09-10T07:57:43.500Z,90.76
2022-09-10T07:58:42.348Z,90.21
2022-09-10T07:59:53.173Z,89.66
2022-09-10T08:00:42.493Z,89.76
2022-09-10T08:01:50.403Z,90.12
2022-09-10T08:03:09.493Z,89.62
2022-09-10T08:04:44.449Z,88.87
2022-09-10T08:04:51.371Z,89.28
2022-09-10T08:05:59.848Z,88.87
2022-09-10T08:06:50.832Z,88.57
2022-09-10T08:07:51.493Z,87.56
2022-09-10T08:08:52.193Z,87.26
2022-09-10T08:09:51.014Z,87.86
2022-09-10T08:10:51.471Z,87.15
2022-09-10T08:11:50.033Z,86.79
2022-09-10T08:12:49.958Z,86.69
2022-09-10T08:13:49.695Z,87.50
2022-09-10T08:14:51.136Z,85.64
2022-09-10T08:15:54.371Z,85.34
2022-09-10T08:16:53.609Z,85.94
2022-09-10T08:17:51.260Z,85.48
2022-09-10T08:18:49.817Z,86.79
2022-09-10T08:21:11.529Z,88.51
2022-09-10T08:22:13.620Z,87.96
2022-09-10T08:23:20.956Z,87.46
2022-09-10T08:24:11.162Z,86.61
2022-09-10T08:25:10.936Z,85.84
2022-09-10T08:26:20.964Z,85.54
2022-09-10T08:27:10.884Z,87.12
2022-09-10T08:28:10.902Z,85.74
2022-09-10T08:29:10.939Z,85.58
2022-09-10T08:32:13.264Z,86.29
2022-09-10T08:33:13.935Z,86.90
2022-09-10T08:34:23.058Z,88.10
2022-09-10T08:35:17.291Z,87.50
2022-09-10T08:36:17.028Z,86.19
2022-09-10T08:37:13.497Z,86.29
2022-09-10T08:38:13.195Z,85.58
2022-09-10T08:39:15.573Z,85.99
2022-09-10T08:40:13.830Z,85.28
2022-09-10T08:41:13.535Z,85.99
2022-09-10T08:42:13.180Z,85.34
2022-09-10T08:43:13.127Z,85.64
2022-09-10T08:44:13.950Z,85.94
2022-09-10T08:45:14.687Z,85.94
2022-09-10T08:47:41.691Z,85.94
2022-09-10T08:48:42.259Z,84.69
2022-09-10T08:49:42.032Z,83.52
2022-09-10T08:50:41.622Z,83.78
2022-09-10T08:51:59.820Z,83.28
2022-09-10T08:52:41.639Z,84.12
2022-09-10T08:53:49.557Z,83.32
2022-09-10T08:54:41.859Z,84.97
2022-09-10T08:55:43.392Z,85.03
2022-09-10T08:56:41.792Z,85.30
2022-09-10T08:57:41.990Z,83.18
2022-09-10T08:58:50.569Z,82.57
2022-09-10T08:59:42.877Z,82.71
2022-09-10T09:00:46.219Z,83.92
2022-09-10T09:01:42.976Z,83.52
2022-09-10T09:05:20.763Z,83.18
2022-09-10T09:06:20.621Z,83.01
2022-09-10T09:09:31.143Z,83.42
2022-09-10T09:10:31.041Z,83.32
2022-09-10T09:13:48.783Z,83.01
2022-09-10T09:14:48.940Z,83.01
2022-09-10T09:15:50.898Z,83.32
2022-09-10T09:16:50.732Z,83.32
2022-09-10T09:17:51.696Z,83.92
2022-09-10T09:18:52.114Z,82.87
2022-09-10T09:21:34.368Z,82.67
2022-09-10T09:22:39.347Z,83.28
2022-09-10T09:23:35.362Z,82.47
2022-09-10T09:24:34.401Z,81.46
2022-09-10T09:25:34.353Z,80.85
2022-09-10T09:26:34.323Z,82.17
2022-09-10T09:27:35.681Z,82.13
2022-09-10T09:28:35.702Z,83.48
2022-09-10T09:29:35.709Z,82.64
2022-09-10T09:30:36.038Z,81.62
2022-09-10T09:31:35.645Z,81.52
2022-09-10T09:32:35.502Z,81.22
2022-09-10T09:33:35.456Z,80.55
2022-09-10T09:34:35.677Z,80.76
2022-09-10T09:35:35.446Z,82.27
2022-09-10T09:36:35.523Z,81.96
2022-09-10T09:37:35.645Z,82.57
2022-09-10T09:38:35.430Z,82.03
2022-09-10T09:39:35.495Z,82.09
2022-09-10T09:40:35.452Z,81.93
2022-09-10T09:41:35.417Z,80.98
2022-09-10T09:42:35.358Z,81.12
2022-09-10T09:43:35.472Z,81.62
2022-09-10T09:44:35.462Z,81.52
2022-09-10T09:45:35.509Z,81.12
2022-09-10T09:46:35.371Z,80.18
2022-09-10T09:47:35.393Z,79.71
2022-09-10T09:48:35.325Z,80.51
2022-09-10T09:49:35.298Z,81.22
2022-09-10T09:50:35.628Z,80.92
2022-09-10T09:51:35.525Z,80.51
2022-09-10T09:52:35.351Z,80.62
2022-09-10T09:53:35.267Z,81.56
2022-09-10T09:55:03.245Z,81.32
2022-09-10T09:55:37.249Z,80.62
2022-09-10T09:56:35.261Z,81.73
2022-09-10T09:57:35.481Z,81.12
2022-09-10T09:58:35.227Z,80.68
2022-09-10T09:59:35.240Z,79.91
2022-09-10T10:00:35.314Z,80.51
2022-09-10T10:01:35.298Z,80.82
2022-09-10T10:02:35.203Z,80.62
2022-09-10T10:03:35.140Z,80.38
2022-09-10T10:04:38.965Z,79.97
2022-09-10T10:05:36.121Z,80.68
2022-09-10T10:06:35.166Z,80.07
2022-09-10T10:07:35.151Z,79.73
2022-09-10T10:08:35.107Z,79.33
2022-09-10T10:09:35.089Z,80.24
2022-09-10T10:10:35.182Z,80.60
2022-09-10T10:11:35.091Z,78.59
2022-09-10T10:12:35.023Z,78.89
2022-09-10T10:13:35.225Z,77.84
2022-09-10T10:14:35.191Z,78.55
2022-09-10T10:15:35.095Z,77.24
2022-09-10T10:16:35.028Z,78.69
2022-09-10T10:17:35.017Z,77.75
2022-09-10T10:18:34.977Z,77.24
2022-09-10T10:19:34.963Z,77.14
2022-09-10T10:20:34.995Z,77.84
2022-09-10T10:21:35.002Z,76.94
2022-09-10T10:22:34.933Z,77.44
2022-09-10T10:23:34.990Z,77.75
2022-09-10T10:24:34.960Z,75.49
2022-09-10T10:25:34.993Z,74.89
2022-09-10T10:26:34.897Z,77.91
2022-09-10T10:27:34.969Z,77.27
2022-09-10T10:28:34.886Z,76.76
2022-09-10T10:29:34.846Z,76.50
2022-09-10T10:30:34.937Z,75.86
2022-09-10T10:31:34.929Z,76.40
2022-09-10T10:32:34.899Z,76.10
2022-09-10T10:33:34.822Z,75.53
2022-09-10T10:34:34.846Z,76.43
2022-09-10T10:35:34.839Z,76.43
2022-09-10T10:36:34.787Z,76.77
2022-09-10T10:37:34.814Z,75.96
2022-09-10T10:38:34.767Z,76.67
2022-09-10T10:39:34.816Z,76.17
2022-09-10T10:40:34.793Z,76.64
2022-09-10T10:41:35.055Z,77.17
2022-09-10T10:42:34.694Z,76.43
2022-09-10T10:43:34.712Z,76.47
2022-09-10T10:44:34.703Z,76.91
2022-09-10T10:45:34.752Z,76.81
2022-09-10T10:46:34.713Z,76.37
2022-09-10T10:47:34.618Z,76.07
2022-09-10T10:48:34.729Z,76.77
2022-09-10T10:49:42.809Z,76.57
2022-09-10T10:50:35.649Z,76.43
2022-09-10T10:51:34.592Z,76.77
2022-09-10T10:52:34.624Z,76.23
2022-09-10T10:53:34.632Z,75.93
2022-09-10T10:54:34.650Z,75.73
2022-09-10T10:55:34.585Z,75.33
2022-09-10T10:56:34.559Z,76.23
2022-09-10T10:57:34.533Z,76.23
2022-09-10T10:58:34.555Z,75.63
2022-09-10T10:59:34.605Z,75.19
2022-09-10T11:00:34.589Z,75.02
2022-09-10T11:01:34.689Z,75.56
2022-09-10T11:02:34.599Z,75.56
2022-09-10T11:03:34.512Z,76.17
2022-09-10T11:04:34.573Z,76.17
2022-09-10T11:05:34.576Z,76.07
2022-09-10T11:06:34.474Z,77.04
2022-09-10T11:07:34.606Z,77.47
2022-09-10T11:08:34.512Z,75.85
2022-09-10T11:09:34.478Z,72.80
2022-09-10T11:10:34.503Z,73.87
2022-09-10T11:11:34.417Z,72.43
2022-09-10T11:12:34.430Z,70.19
2022-09-10T11:13:34.485Z,69.66
2022-09-10T11:14:34.399Z,68.76
2022-09-10T11:15:34.433Z,67.72
2022-09-10T11:16:37.415Z,67.15
2022-09-10T11:17:35.413Z,68.02
2022-09-10T11:18:34.436Z,67.69
2022-09-10T11:19:34.354Z,66.28
2022-09-10T11:20:34.595Z,65.48
2022-09-10T11:21:34.332Z,66.69
2022-09-10T11:22:34.327Z,66.59
2022-09-10T11:23:34.289Z,66.25
2022-09-10T11:24:34.318Z,65.16
2022-09-10T11:25:34.453Z,66.05
2022-09-10T11:26:34.283Z,66.32
2022-09-10T11:27:34.245Z,65.22
2022-09-10T11:28:34.266Z,62.55
2022-09-10T11:29:34.203Z,62.81
2022-09-10T11:30:34.309Z,63.92
2022-09-10T11:31:34.267Z,64.78
2022-09-10T11:32:34.225Z,64.42
2022-09-10T11:33:34.246Z,66.12
2022-09-10T11:34:34.215Z,65.22
2022-09-10T11:35:34.194Z,65.65
2022-09-10T11:36:34.154Z,68.52
2022-09-10T11:37:34.157Z,67.85
2022-09-10T11:38:34.139Z,69.59
2022-09-10T11:39:34.204Z,70.50
2022-09-10T11:40:34.180Z,70.09
2022-09-10T11:41:34.125Z,69.32
2022-09-10T11:42:34.103Z,70.43
2022-09-10T11:43:34.179Z,70.03
2022-09-10T11:44:36.435Z,70.23
2022-09-10T11:45:35.105Z,71.33
2022-09-10T11:46:34.145Z,72.13
2022-09-10T11:47:34.100Z,72.17
2022-09-10T11:48:34.048Z,72.17
2022-09-10T11:49:34.086Z,73.04
2022-09-10T11:50:35.010Z,73.58
2022-09-10T11:51:35.102Z,75.79
2022-09-10T11:52:34.030Z,74.82
2022-09-10T11:53:34.057Z,74.35
2022-09-10T11:54:34.073Z,74.46
2022-09-10T11:55:34.003Z,75.87
2022-09-10T11:56:33.986Z,77.28
2022-09-10T11:57:34.012Z,77.68
2022-09-10T11:58:33.988Z,77.68
2022-09-10T11:59:34.001Z,78.63
2022-09-10T12:00:33.921Z,80.38
2022-09-10T12:01:33.916Z,80.78
2022-09-10T12:02:33.931Z,81.82
2022-09-10T12:03:33.932Z,83.04
2022-09-10T12:04:37.960Z,83.24
2022-09-10T12:05:35.885Z,83.14
2022-09-10T12:06:33.931Z,82.53
2022-09-10T12:07:33.836Z,82.64
2022-09-10T12:08:33.857Z,83.24
2022-09-10T12:09:33.848Z,83.70
2022-09-10T12:10:33.914Z,84.51
2022-09-10T12:11:33.842Z,85.52
2022-09-10T12:12:33.784Z,86.22
2022-09-10T12:13:33.850Z,85.62
2022-09-10T12:14:33.827Z,86.02
2022-09-10T12:15:33.811Z,86.22
2022-09-10T12:16:33.759Z,85.62
2022-09-10T12:17:33.780Z,86.63
2022-09-10T12:18:33.759Z,85.56
2022-09-10T12:19:33.737Z,86.73
2022-09-10T12:20:33.743Z,87.74
2022-09-10T12:21:33.723Z,86.83
2022-09-10T12:22:33.714Z,87.34
2022-09-10T12:23:33.703Z,86.02
2022-09-10T12:24:33.741Z,87.34
2022-09-10T12:25:34.790Z,84.75
2022-09-10T12:26:34.707Z,86.97
2022-09-10T12:27:33.658Z,86.22
2022-09-10T12:28:33.636Z,86.53
2022-09-10T12:29:33.771Z,84.21
2022-09-10T12:30:33.728Z,85.25
2022-09-10T12:31:33.688Z,83.50
2022-09-10T12:32:33.597Z,84.81
2022-09-10T12:33:33.594Z,86.02
2022-09-10T12:34:33.590Z,85.02
2022-09-10T12:35:33.614Z,85.11
2022-09-10T12:36:33.599Z,85.11
2022-09-10T12:37:33.558Z,84.41
2022-09-10T12:38:33.531Z,84.41
2022-09-10T12:39:33.579Z,86.63
2022-09-10T12:40:33.618Z,85.42
2022-09-10T12:41:33.513Z,86.02
2022-09-10T12:42:33.534Z,86.73
2022-09-10T12:43:33.537Z,87.54
2022-09-10T12:44:33.514Z,86.02
2022-09-10T12:45:33.496Z,83.50
2022-09-10T12:46:33.551Z,82.33
2022-09-10T12:47:33.530Z,83.84
2022-09-10T12:48:33.562Z,80.41
2022-09-10T12:49:33.428Z,82.93
2022-09-10T12:50:33.495Z,80.45
2022-09-10T12:51:33.427Z,82.37
2022-09-10T12:52:33.431Z,82.07
2022-09-10T12:53:33.400Z,83.72
2022-09-10T12:54:33.386Z,83.28
2022-09-10T12:55:33.398Z,82.71
2022-09-10T12:56:33.365Z,82.81
2022-09-10T12:57:33.335Z,83.62
2022-09-10T12:58:33.379Z,83.42
2022-09-10T12:59:33.346Z,84.03
2022-09-10T13:00:33.340Z,82.21
2022-09-10T13:01:33.473Z,82.91
2022-09-10T13:02:33.401Z,80.79
2022-09-10T13:03:33.326Z,82.31
2022-09-10T13:04:33.306Z,81.90
2022-09-10T13:05:33.272Z,82.10
2022-09-10T13:06:33.279Z,82.67
2022-09-10T13:07:33.259Z,81.50
2022-09-10T13:08:33.269Z,81.20
2022-09-10T13:09:33.237Z,82.01
2022-09-10T13:10:33.259Z,82.87
2022-09-10T13:11:33.210Z,83.98
2022-09-10T13:12:33.217Z,83.74
2022-09-10T13:13:33.253Z,83.95
2022-09-10T13:14:33.224Z,81.93
2022-09-10T13:15:33.346Z,82.33
2022-09-10T13:16:33.177Z,82.73
2022-09-10T13:17:33.239Z,83.74
2022-09-10T13:18:33.157Z,83.24
2022-09-10T13:19:33.154Z,83.44
2022-09-10T13:20:33.121Z,83.24
2022-09-10T13:21:33.114Z,84.15
2022-09-10T13:22:33.185Z,83.54
2022-09-10T13:23:33.073Z,84.35
2022-09-10T13:24:33.085Z,84.55
2022-09-10T13:25:33.197Z,83.28
2022-09-10T13:28:47.631Z,85.60
2022-09-10T13:29:48.923Z,83.18
2022-09-10T13:30:48.961Z,82.27
2022-09-10T13:31:48.879Z,83.28
2022-09-10T13:32:48.781Z,84.59
2022-09-10T13:33:48.797Z,84.09
2022-09-10T13:34:48.790Z,83.28
2022-09-10T13:35:48.828Z,84.12
2022-09-10T13:36:48.779Z,85.14
2022-09-10T13:37:48.777Z,85.74
2022-09-10T13:38:48.750Z,86.95
2022-09-10T13:39:48.776Z,85.84
2022-09-10T13:40:48.754Z,86.35
2022-09-10T13:41:48.680Z,87.76
2022-09-10T13:42:48.684Z,86.75
2022-09-10T13:43:48.663Z,87.56
2022-09-10T13:44:48.677Z,86.65
2022-09-10T13:45:48.810Z,87.56
2022-09-10T13:46:48.735Z,87.82
2022-09-10T13:47:48.616Z,88.17
2022-09-10T13:48:48.673Z,87.12
2022-09-10T13:49:48.627Z,86.91
2022-09-10T13:50:48.647Z,87.21
2022-09-10T13:51:48.644Z,86.10
2022-09-10T13:52:48.614Z,87.21
2022-09-10T13:53:48.606Z,87.12
2022-09-10T13:54:48.569Z,87.62
2022-09-10T13:55:48.612Z,87.58
2022-09-10T13:56:48.568Z,86.91
2022-09-10T13:57:48.578Z,86.87
2022-09-10T13:58:48.587Z,87.27
2022-09-10T13:59:48.539Z,85.96
2022-09-10T14:00:48.568Z,86.67
2022-09-10T14:01:48.585Z,85.86
2022-09-10T14:02:48.573Z,86.27
2022-09-10T14:03:48.502Z,85.56
2022-09-10T14:04:48.530Z,86.16
2022-09-10T14:05:48.499Z,86.27
2022-09-10T14:06:48.424Z,85.36
2022-09-10T14:07:48.431Z,86.16
2022-09-10T14:08:48.427Z,85.76
2022-09-10T14:09:48.474Z,86.27
2022-09-10T14:10:48.463Z,86.67
2022-09-10T14:11:48.416Z,86.47
2022-09-10T14:12:48.405Z,85.46
2022-09-10T14:13:48.442Z,86.27
2022-09-10T14:14:48.414Z,87.07
2022-09-10T14:15:48.426Z,86.13
2022-09-10T14:16:48.400Z,86.73
2022-09-10T14:17:48.407Z,85.86
2022-09-10T14:18:48.386Z,86.73
2022-09-10T14:19:48.337Z,86.16
2022-09-10T14:20:48.361Z,85.76
2022-09-10T14:21:48.336Z,84.35
2022-09-10T14:22:48.328Z,84.49
2022-09-10T14:23:48.300Z,85.96
2022-09-10T14:24:48.278Z,85.56
2022-09-10T14:25:48.312Z,86.27
2022-09-10T14:26:48.242Z,85.76
2022-09-10T14:27:51.313Z,86.07
2022-09-10T14:28:49.239Z,86.27
2022-09-10T14:29:48.241Z,87.38
2022-09-10T14:30:48.305Z,86.87
2022-09-10T14:31:48.192Z,86.47
2022-09-10T14:32:48.177Z,87.27
2022-09-10T14:33:48.184Z,85.46
2022-09-10T14:34:48.192Z,86.27
2022-09-10T14:35:48.188Z,87.07
2022-09-10T14:36:48.178Z,86.36
2022-09-10T14:37:48.210Z,86.07
2022-09-10T14:38:48.128Z,85.96
2022-09-10T14:39:48.243Z,86.57
2022-09-10T14:40:48.148Z,87.38
2022-09-10T14:41:48.096Z,87.27
2022-09-10T14:42:48.122Z,87.68
2022-09-10T14:43:48.110Z,87.52
2022-09-10T14:44:48.103Z,87.48
2022-09-10T14:45:48.093Z,86.97
2022-09-10T14:46:48.057Z,86.91
2022-09-10T14:47:48.062Z,86.41
2022-09-10T14:48:48.075Z,86.77
2022-09-10T14:49:48.024Z,86.51
2022-09-10T14:50:48.098Z,87.41
2022-09-10T14:51:47.994Z,88.12
2022-09-10T14:52:48.017Z,87.01
2022-09-10T14:53:47.983Z,87.12
2022-09-10T14:54:47.963Z,87.41
2022-09-10T14:55:47.986Z,87.62
2022-09-10T14:56:47.951Z,87.82
2022-09-10T14:57:47.957Z,86.81
2022-09-10T14:58:47.962Z,87.62
2022-09-10T14:59:47.942Z,87.12
2022-09-10T15:00:47.940Z,87.41
2022-09-10T15:01:47.984Z,87.52
2022-09-10T15:02:47.932Z,87.92
2022-09-10T15:03:47.894Z,87.82
2022-09-10T15:04:47.910Z,88.18
2022-09-10T15:05:47.896Z,87.78
2022-09-10T15:06:47.907Z,88.18
2022-09-10T15:07:47.852Z,88.43
2022-09-10T15:08:47.869Z,87.98
2022-09-10T15:09:47.840Z,88.83
2022-09-10T15:10:47.843Z,88.39
2022-09-10T15:11:47.789Z,88.18
2022-09-10T15:12:47.817Z,88.18
2022-09-10T15:13:47.815Z,88.08
2022-09-10T15:14:47.777Z,88.99